»·PEaware :: N6984P KPSP-L71

N6984P :: KPSP-L71

FLIGHT INFORMATION

Flight Status: Arrived
Operator: Privately registered:
United States
More flights under this callsign
Pilot: James H. (10961)
Aircraft: PIPER PA-24 COMMANCHE
(PA24)
More flights by this aircraft type
Origin: KPSP Palm Springs Intl
United States
Destination: L71 California City Mun
United States
More flights between these airports :: More routes between these airports
Route: DEWAY ACINS
File this flight plan on PilotEdge
Remarks:
Altitude:
(Current/Filed)
6,500ft
Speed:
(Current/Filed)
153kts
Departed: 02-Sep-16 05:34 AM
Arrived: 02-Sep-16 06:22 AM
Distance/Time
Traveled:
109nm/0:47
Distance/Time
To Go:
Arrived

Flight Plot

Page will automatically refresh every two minutes.


Map Options




Map Legend


Flown Route
Filed Route
Departure Airport
Arrival Airport
Navaid (VOR, NDB)
Fix

Horizontal Profiles

Position Reports

Time Latitude Longitude Heading Altitude Ground
Speed
02-Sep-16 05:19 33.826805 -116.510193 270 480ft 0kts
02-Sep-16 05:20 33.826805 -116.510193 270 480ft 0kts
02-Sep-16 05:21 33.826805 -116.510193 270 480ft 0kts
02-Sep-16 05:22 33.826805 -116.510194 270 480ft 0kts
02-Sep-16 05:23 33.826805 -116.510199 270 480ft 0kts
02-Sep-16 05:24 33.826805 -116.510203 270 480ft 0kts
02-Sep-16 05:25 33.826805 -116.510206 270 480ft 0kts
02-Sep-16 05:26 33.826865 -116.509877 96 480ft 7kts
02-Sep-16 05:27 33.825837 -116.507820 92 480ft 15kts
02-Sep-16 05:28 33.824089 -116.504415 145 480ft 22kts
02-Sep-16 05:29 33.818613 -116.499621 143 480ft 24kts
02-Sep-16 05:30 33.817325 -116.498298 1 480ft 0kts
02-Sep-16 05:31 33.818417 -116.497671 323 480ft 24kts
02-Sep-16 05:32 33.840555 -116.517188 323 1221ft 112kts
02-Sep-16 05:33 33.865677 -116.542134 318 2588ft 117kts
02-Sep-16 05:34 33.888542 -116.571583 296 3788ft 122kts
02-Sep-16 05:35 33.898380 -116.610962 280 4817ft 123kts
02-Sep-16 05:36 33.907329 -116.651478 286 5705ft 126kts
02-Sep-16 05:37 33.921889 -116.691124 295 6317ft 142kts
02-Sep-16 05:38 33.942989 -116.732618 300 6655ft 153kts
02-Sep-16 05:39 33.960627 -116.779483 274 6698ft 152kts
02-Sep-16 05:40 33.956479 -116.830463 256 6705ft 153kts
02-Sep-16 05:41 33.947957 -116.881017 260 6690ft 154kts
02-Sep-16 05:42 33.942799 -116.941058 261 6689ft 154kts
02-Sep-16 05:43 33.939284 -116.992439 269 6677ft 155kts
02-Sep-16 05:44 33.939266 -117.035811 260 6674ft 154kts
02-Sep-16 05:45 33.935415 -117.087319 265 6666ft 154kts
02-Sep-16 05:46 33.935882 -117.148003 264 6657ft 154kts
02-Sep-16 05:47 33.935433 -117.190860 279 6651ft 156kts
02-Sep-16 05:48 33.957544 -117.235688 316 6650ft 160kts
02-Sep-16 05:49 33.997513 -117.259630 345 6641ft 163kts
02-Sep-16 05:50 34.043109 -117.259815 1 6644ft 164kts
02-Sep-16 05:51 34.087951 -117.265950 339 6643ft 162kts
02-Sep-16 05:52 34.126209 -117.292941 325 6645ft 158kts
02-Sep-16 05:53 34.165665 -117.317450 325 6656ft 159kts
02-Sep-16 05:54 34.203904 -117.345134 329 6664ft 160kts
02-Sep-16 05:55 34.243559 -117.371808 328 6668ft 162kts
02-Sep-16 05:56 34.281918 -117.399765 325 6649ft 161kts
02-Sep-16 05:57 34.321300 -117.426133 325 6650ft 161kts
02-Sep-16 05:58 34.360453 -117.453187 323 6659ft 164kts
02-Sep-16 05:59 34.398968 -117.482943 331 6654ft 161kts
02-Sep-16 06:00 34.439657 -117.506121 328 6672ft 169kts
02-Sep-16 06:01 34.478319 -117.539502 324 6672ft 172kts
02-Sep-16 06:02 34.521536 -117.564418 334 6662ft 168kts
02-Sep-16 06:03 34.560905 -117.593408 321 6672ft 165kts
02-Sep-16 06:04 34.601105 -117.621080 337 6668ft 165kts
02-Sep-16 06:05 34.641436 -117.646358 321 6670ft 167kts
02-Sep-16 06:06 34.678617 -117.680224 328 6658ft 165kts
02-Sep-16 06:07 34.720712 -117.703203 326 6654ft 167kts
02-Sep-16 06:08 34.759223 -117.734305 323 6645ft 165kts
02-Sep-16 06:09 34.800352 -117.759262 333 6638ft 164kts
02-Sep-16 06:10 34.839466 -117.787634 325 6633ft 164kts
02-Sep-16 06:11 34.879583 -117.814975 331 6636ft 171kts
02-Sep-16 06:12 34.920509 -117.844056 324 6630ft 165kts
02-Sep-16 06:13 34.960782 -117.871023 334 6642ft 170kts
02-Sep-16 06:14 35.001509 -117.900250 323 6652ft 171kts
02-Sep-16 06:15 35.039077 -117.932964 327 5636ft 161kts
02-Sep-16 06:16 35.077311 -117.959906 332 4111ft 156kts
02-Sep-16 06:17 35.115451 -117.978814 331 3681ft 137kts
02-Sep-16 06:18 35.146911 -117.984564 354 3195ft 107kts
02-Sep-16 06:19 35.153475 -118.006158 255 2500ft 62kts
02-Sep-16 06:20 35.151243 -118.016610 255 2457ft 27kts
02-Sep-16 06:21 35.149330 -118.022948 75 2457ft 17kts
02-Sep-16 06:22 35.150851 -118.015673 83 2457ft 8kts
02-Sep-16 06:23 35.150542 -118.015294 348 2457ft 0kts
02-Sep-16 06:24 35.150543 -118.015294 348 2457ft 0kts
02-Sep-16 06:25 35.150545 -118.015286 348 2457ft 0kts

Navigation Log

Ident Type
Flight plan parsing failed, navigation log unavailable